Time;durP1;ratioP1;P1;durP2;ratioP2;P2;SDS_P1;SDS_P2;PMS_P1;PMS_P2;Temp;Humidity;BMP_temperature;BMP_pressure;BME280_temperature;BME280_humidity;BME280_pressure;Samples;Min_cycle;Max_cycle;Signal;HPM_P1;HPM_P2
2022/12/06 00:01:45;;;;;;;390.30;193.40;;;4.70;99.90;;;;;;5090897;28;20506;-55
2022/12/06 00:04:13;;;;;;;385.75;189.10;;;4.70;99.90;;;;;;5090861;28;20028;-55
2022/12/06 00:06:47;;;;;;;357.88;170.93;;;4.80;99.90;;;;;;5090884;28;20071;-64
2022/12/06 00:09:24;;;;;;;351.30;170.30;;;4.80;99.90;;;;;;5090524;28;20031;-59
2022/12/06 00:11:51;;;;;;;338.25;166.90;;;4.80;99.90;;;;;;5090904;28;20032;-56
2022/12/06 00:14:18;;;;;;;366.65;174.10;;;4.80;99.90;;;;;;5090501;28;20024;-55
2022/12/06 00:16:44;;;;;;;349.90;170.57;;;4.80;99.90;;;;;;5071848;28;20028;-61
2022/12/06 00:19:15;;;;;;;347.00;167.87;;;4.80;99.90;;;;;;5090510;28;20036;-57
2022/12/06 00:21:41;;;;;;;339.98;164.40;;;4.80;99.90;;;;;;5090573;28;20753;-63
2022/12/06 00:24:13;;;;;;;335.08;166.02;;;4.80;99.90;;;;;;5090448;28;20024;-60
2022/12/06 00:26:42;;;;;;;333.75;166.13;;;4.90;99.90;;;;;;5090358;28;20108;-55
2022/12/06 00:29:11;;;;;;;302.70;151.75;;;4.90;99.90;;;;;;5068726;28;20017;-56
2022/12/06 00:31:36;;;;;;;328.85;159.13;;;4.90;99.90;;;;;;5088632;28;20024;-57
2022/12/06 00:34:03;;;;;;;302.50;152.57;;;4.90;99.90;;;;;;5090368;28;20730;-52
2022/12/06 00:36:31;;;;;;;294.20;145.55;;;4.90;99.90;;;;;;5090125;28;20039;-54
2022/12/06 00:39:02;;;;;;;296.60;143.40;;;4.90;99.90;;;;;;5090141;28;20032;-64
2022/12/06 00:41:28;;;;;;;294.92;144.75;;;4.90;99.90;;;;;;5090187;28;20031;-57
2022/12/06 00:43:54;;;;;;;289.25;140.65;;;4.80;99.90;;;;;;5090119;28;20491;-55
2022/12/06 00:46:28;;;;;;;287.25;141.90;;;4.90;99.90;;;;;;5090220;28;20115;-52
2022/12/06 00:48:55;;;;;;;275.08;139.82;;;4.90;99.90;;;;;;5082121;28;20035;-55
2022/12/06 00:51:22;;;;;;;276.25;141.90;;;4.90;99.90;;;;;;5090207;28;20099;-56
2022/12/06 00:53:48;;;;;;;288.30;140.98;;;4.90;99.90;;;;;;5090084;28;20119;-54
2022/12/06 00:56:14;;;;;;;293.00;147.98;;;4.90;99.90;;;;;;5068480;28;20032;-52
2022/12/06 00:58:40;;;;;;;283.35;144.80;;;4.90;99.90;;;;;;5088679;28;20030;-57
2022/12/06 01:01:14;;;;;;;284.77;143.07;;;4.90;99.90;;;;;;5086784;28;20020;-57
2022/12/06 01:03:40;;;;;;;291.73;149.98;;;4.90;99.90;;;;;;5093695;28;20012;-56
2022/12/06 01:06:09;;;;;;;315.15;158.00;;;4.90;99.90;;;;;;5103652;28;20023;-54
2022/12/06 01:08:36;;;;;;;305.00;156.27;;;4.90;99.90;;;;;;5100563;28;20020;-55
2022/12/06 01:11:02;;;;;;;300.35;151.88;;;4.90;99.90;;;;;;5089788;28;20024;-54
2022/12/06 01:13:28;;;;;;;287.92;147.93;;;4.90;99.90;;;;;;5068805;28;20024;-55
2022/12/06 01:15:55;;;;;;;289.08;142.05;;;4.90;99.90;;;;;;5089564;28;20078;-53
2022/12/06 01:18:21;;;;;;;266.20;136.15;;;4.90;99.90;;;;;;5089654;28;20036;-54
2022/12/06 01:20:46;;;;;;;267.98;132.15;;;4.80;99.90;;;;;;5089514;28;20051;-58
2022/12/06 01:23:13;;;;;;;251.75;125.70;;;4.90;99.90;;;;;;5089774;28;20449;-58
2022/12/06 01:25:38;;;;;;;259.53;127.17;;;4.90;99.90;;;;;;5091750;28;20111;-58
2022/12/06 01:28:04;;;;;;;245.43;120.93;;;4.90;99.90;;;;;;5093850;28;20430;-57
2022/12/06 01:30:30;;;;;;;242.05;122.28;;;4.90;99.90;;;;;;5093716;28;20065;-57
2022/12/06 01:32:56;;;;;;;241.02;120.05;;;4.90;99.90;;;;;;5093717;28;20036;-58
2022/12/06 01:35:21;;;;;;;226.27;116.18;;;4.90;99.90;;;;;;5093768;28;20020;-57
2022/12/06 01:37:47;;;;;;;248.65;119.55;;;4.80;99.90;;;;;;5093681;28;20457;-58
2022/12/06 01:40:13;;;;;;;235.10;117.47;;;4.90;99.90;;;;;;5071893;28;20741;-57
2022/12/06 01:42:38;;;;;;;248.73;116.53;;;4.80;99.90;;;;;;5092117;28;20034;-56
2022/12/06 01:45:05;;;;;;;244.15;116.22;;;4.90;99.90;;;;;;5093282;28;20384;-55
2022/12/06 01:47:34;;;;;;;236.18;117.22;;;4.80;99.90;;;;;;5093398;28;20024;-57
2022/12/06 01:50:05;;;;;;;228.73;114.82;;;4.90;99.90;;;;;;5093348;28;20055;-59
2022/12/06 01:52:41;;;;;;;241.63;117.05;;;4.90;99.90;;;;;;5093343;28;20060;-58
2022/12/06 01:55:09;;;;;;;235.88;118.40;;;4.90;99.90;;;;;;5093163;28;20089;-58
2022/12/06 01:57:34;;;;;;;256.52;125.65;;;4.90;99.90;;;;;;5093033;28;20471;-59
2022/12/06 02:00:01;;;;;;;247.02;118.97;;;4.90;99.90;;;;;;5092711;28;20040;-60
2022/12/06 02:02:26;;;;;;;234.23;120.20;;;4.90;99.90;;;;;;5093477;28;20024;-61
2022/12/06 02:04:53;;;;;;;255.55;122.72;;;4.90;99.90;;;;;;5093273;28;20492;-61
2022/12/06 02:07:20;;;;;;;244.43;123.50;;;4.90;99.90;;;;;;5071471;28;20097;-58
2022/12/06 02:09:48;;;;;;;241.80;119.97;;;4.90;99.90;;;;;;5092675;28;20024;-58
2022/12/06 02:12:14;;;;;;;254.43;125.82;;;4.90;99.90;;;;;;5092904;28;20035;-58
2022/12/06 02:14:42;;;;;;;238.10;120.78;;;4.90;99.90;;;;;;5092993;28;20024;-59
2022/12/06 02:17:29;;;;;;;250.40;125.15;;;4.90;99.90;;;;;;5071251;28;20032;-55
2022/12/06 02:20:04;;;;;;;234.25;118.53;;;4.90;99.90;;;;;;5092968;28;20043;-57
2022/12/06 02:22:57;;;;;;;237.88;120.35;;;4.90;99.90;;;;;;5092850;28;20051;-57
2022/12/06 02:26:01;;;;;;;240.60;119.38;;;5.00;99.90;;;;;;5092631;28;20067;-59
2022/12/06 02:29:05;;;;;;;244.48;117.85;;;4.90;99.90;;;;;;5092606;28;20024;-65
2022/12/06 02:32:07;;;;;;;246.80;122.32;;;4.90;99.90;;;;;;5090392;28;20028;-64
2022/12/06 02:34:54;;;;;;;257.65;123.07;;;5.00;99.90;;;;;;5092724;28;20102;-62
2022/12/06 02:37:25;;;;;;;246.85;120.78;;;5.00;99.90;;;;;;5092443;28;20084;-61
2022/12/06 02:40:29;;;;;;;236.10;119.72;;;5.00;99.90;;;;;;5092630;28;20043;-57
2022/12/06 02:43:02;;;;;;;230.63;117.15;;;5.00;99.90;;;;;;5091813;28;20036;-59
2022/12/06 02:45:32;;;;;;;232.95;117.60;;;5.00;99.90;;;;;;5092324;28;20095;-56
2022/12/06 02:48:02;;;;;;;219.35;111.30;;;5.00;99.90;;;;;;5092475;28;20091;-57
2022/12/06 02:50:38;;;;;;;242.77;118.75;;;5.00;99.90;;;;;;5092200;28;20442;-56
2022/12/06 02:53:08;;;;;;;231.70;115.90;;;5.00;99.90;;;;;;5092428;28;20032;-65
2022/12/06 02:55:34;;;;;;;226.35;112.45;;;5.00;99.90;;;;;;5091963;28;20055;-58
2022/12/06 02:58:00;;;;;;;235.95;113.80;;;5.00;99.90;;;;;;5091971;28;20061;-56
2022/12/06 03:00:49;;;;;;;221.93;111.50;;;5.00;99.90;;;;;;5091947;28;20047;-58
2022/12/06 03:03:36;;;;;;;216.25;111.00;;;5.00;99.90;;;;;;5092123;28;20429;-57
2022/12/06 03:06:01;;;;;;;220.25;107.50;;;5.00;99.90;;;;;;5091981;28;20028;-56
2022/12/06 03:08:58;;;;;;;223.60;113.45;;;5.00;99.90;;;;;;5091667;28;20069;-57
2022/12/06 03:11:31;;;;;;;211.57;106.80;;;5.00;99.90;;;;;;5091649;28;20028;-55
2022/12/06 03:14:08;;;;;;;210.63;105.85;;;5.00;99.90;;;;;;5084522;28;20028;-56
2022/12/06 03:16:54;;;;;;;197.90;99.85;;;5.00;99.90;;;;;;5091702;28;20391;-56
2022/12/06 03:19:23;;;;;;;205.20;98.90;;;5.10;99.90;;;;;;5070204;28;20822;-59
2022/12/06 03:21:56;;;;;;;199.18;96.85;;;5.10;99.90;;;;;;5091652;28;20024;-55
2022/12/06 03:24:24;;;;;;;185.75;96.05;;;5.10;99.90;;;;;;5091688;28;20043;-56
2022/12/06 03:26:51;;;;;;;197.25;96.40;;;5.10;99.90;;;;;;5091290;28;20103;-56
2022/12/06 03:29:21;;;;;;;201.25;101.13;;;5.10;99.90;;;;;;5071364;28;20054;-56
2022/12/06 03:31:48;;;;;;;195.77;98.78;;;5.10;99.90;;;;;;5071281;28;20032;-60
2022/12/06 03:34:18;;;;;;;191.90;97.05;;;5.20;99.90;;;;;;5071336;28;20032;-58
2022/12/06 03:36:46;;;;;;;208.32;100.20;;;5.10;99.90;;;;;;5070996;28;20032;-62
2022/12/06 03:39:18;;;;;;;196.13;99.68;;;5.10;99.90;;;;;;5071024;28;20060;-59
2022/12/06 03:41:51;;;;;;;212.63;100.68;;;5.10;99.90;;;;;;5070844;28;20064;-59
2022/12/06 03:44:17;;;;;;;207.35;98.40;;;5.10;99.90;;;;;;5071027;28;20722;-58
2022/12/06 03:46:49;;;;;;;199.15;97.15;;;5.10;99.90;;;;;;5052020;28;20031;-60
2022/12/06 03:49:34;;;;;;;199.18;92.15;;;5.00;99.90;;;;;;5070504;28;20032;-56
2022/12/06 03:52:00;;;;;;;181.27;88.05;;;5.00;99.90;;;;;;5070792;28;20585;-55
2022/12/06 03:54:26;;;;;;;181.87;90.07;;;5.00;99.90;;;;;;5070766;28;20117;-55
2022/12/06 03:56:51;;;;;;;196.27;94.20;;;5.00;99.90;;;;;;5070589;28;20024;-53
2022/12/06 03:59:17;;;;;;;179.23;89.40;;;5.00;99.90;;;;;;5070760;28;20036;-55
2022/12/06 04:01:43;;;;;;;194.75;87.97;;;5.00;99.90;;;;;;5070500;28;20033;-55
2022/12/06 04:04:09;;;;;;;179.20;87.38;;;5.00;99.90;;;;;;5070684;28;20531;-53
2022/12/06 04:06:35;;;;;;;174.07;83.63;;;5.00;99.90;;;;;;5070753;28;20055;-57
2022/12/06 04:11:45;;;;;;;192.63;90.43;;;5.00;99.90;;;;;;5070772;28;20039;-58
2022/12/06 04:14:11;;;;;;;195.60;90.32;;;5.10;99.90;;;;;;5070383;28;20029;-54
2022/12/06 04:19:21;;;;;;;194.63;92.80;;;5.00;99.90;;;;;;5070340;28;20092;-53
2022/12/06 04:24:31;;;;;;;194.27;95.43;;;5.10;99.90;;;;;;5070531;28;20043;-56
2022/12/06 04:40:41;;;;;;;201.20;94.00;;;5.10;99.90;;;;;;5070070;28;20590;-57
2022/12/06 04:45:54;;;;;;;220.40;98.93;;;5.00;99.90;;;;;;5070152;28;20526;-53
2022/12/06 04:48:20;;;;;;;196.10;93.85;;;5.00;99.90;;;;;;5069562;28;20028;-54
2022/12/06 04:50:47;;;;;;;189.40;85.95;;;5.00;99.90;;;;;;5069704;28;20024;-54
2022/12/06 04:53:13;;;;;;;189.35;87.03;;;5.00;99.90;;;;;;5069855;28;20464;-55
2022/12/06 04:55:38;;;;;;;188.52;84.47;;;5.00;99.90;;;;;;5069526;28;20063;-55
2022/12/06 04:58:04;;;;;;;175.18;81.65;;;5.00;99.90;;;;;;5069797;28;20029;-54
2022/12/06 05:00:30;;;;;;;179.52;81.82;;;4.90;99.90;;;;;;5068638;28;20037;-55
2022/12/06 05:02:56;;;;;;;166.32;78.53;;;4.90;99.90;;;;;;5069727;28;20099;-56
2022/12/06 05:05:23;;;;;;;154.38;75.35;;;4.90;99.90;;;;;;5069390;28;20151;-55
2022/12/06 05:07:48;;;;;;;161.02;74.95;;;5.00;99.90;;;;;;5069565;28;20026;-54
2022/12/06 05:10:14;;;;;;;168.30;77.30;;;5.00;99.90;;;;;;5048110;28;20049;-55
2022/12/06 05:12:39;;;;;;;154.13;74.57;;;5.00;99.90;;;;;;5068296;28;20025;-57
2022/12/06 05:15:05;;;;;;;158.25;72.28;;;5.00;99.90;;;;;;5069661;28;20487;-56
2022/12/06 05:17:31;;;;;;;157.80;74.90;;;5.00;99.90;;;;;;5069633;28;20107;-56
2022/12/06 05:19:57;;;;;;;151.73;74.15;;;5.10;99.90;;;;;;5069438;28;20032;-55
2022/12/06 05:22:22;;;;;;;164.23;75.05;;;5.10;99.90;;;;;;5069501;28;20758;-53
2022/12/06 05:24:48;;;;;;;159.48;72.20;;;5.00;99.90;;;;;;5069556;28;20068;-55
2022/12/06 05:27:13;;;;;;;160.85;75.07;;;5.00;99.90;;;;;;5069468;28;20028;-54
2022/12/06 05:29:40;;;;;;;168.98;77.72;;;5.00;99.90;;;;;;5069370;28;20028;-54
2022/12/06 05:32:05;;;;;;;166.48;76.80;;;5.00;99.90;;;;;;5069412;28;20021;-55
2022/12/06 05:34:31;;;;;;;147.25;73.60;;;5.00;99.90;;;;;;5069310;28;20046;-54
2022/12/06 05:36:56;;;;;;;143.68;70.68;;;5.00;99.90;;;;;;5069460;28;20024;-56
2022/12/06 05:39:22;;;;;;;151.35;70.88;;;5.00;99.90;;;;;;5069407;28;20110;-57
2022/12/06 05:41:48;;;;;;;159.20;76.88;;;5.00;99.90;;;;;;5069354;28;20661;-57
2022/12/06 05:44:13;;;;;;;149.98;75.57;;;5.00;99.90;;;;;;5069377;28;20041;-57
2022/12/06 05:46:39;;;;;;;155.65;76.63;;;5.00;99.90;;;;;;5069026;28;20032;-57
2022/12/06 05:49:05;;;;;;;155.85;76.78;;;5.00;99.90;;;;;;5069264;28;20028;-57
2022/12/06 05:51:30;;;;;;;174.00;81.63;;;5.00;99.90;;;;;;5069396;28;20021;-57
2022/12/06 05:53:56;;;;;;;171.38;79.50;;;5.00;99.90;;;;;;5069190;28;20609;-56
2022/12/06 05:56:21;;;;;;;173.13;84.75;;;5.00;99.90;;;;;;5069073;28;20021;-57
2022/12/06 05:58:47;;;;;;;181.70;90.97;;;5.00;99.90;;;;;;5061858;28;20032;-57
2022/12/06 06:01:13;;;;;;;175.82;85.78;;;5.00;99.90;;;;;;5067449;28;20028;-57
2022/12/06 06:03:38;;;;;;;172.75;84.95;;;5.00;99.90;;;;;;5088253;28;20081;-58
2022/12/06 06:06:04;;;;;;;173.48;85.25;;;5.00;99.90;;;;;;5091694;28;20029;-57
2022/12/06 06:08:30;;;;;;;166.30;80.65;;;5.00;99.90;;;;;;5091778;28;20638;-56
2022/12/06 06:10:56;;;;;;;173.68;85.05;;;4.90;99.90;;;;;;5093227;28;20048;-57
2022/12/06 06:13:22;;;;;;;169.55;80.35;;;5.00;99.90;;;;;;5095954;28;20091;-57
2022/12/06 06:15:49;;;;;;;175.45;83.07;;;5.00;99.90;;;;;;5078585;28;20789;-56
2022/12/06 06:18:15;;;;;;;161.82;81.78;;;5.00;99.90;;;;;;5112990;28;20066;-57
2022/12/06 06:20:41;;;;;;;167.70;82.63;;;5.00;99.90;;;;;;5113136;28;20126;-60
2022/12/06 06:23:07;;;;;;;172.25;85.20;;;5.00;99.90;;;;;;5113280;28;20106;-57
2022/12/06 06:25:32;;;;;;;159.02;77.45;;;5.10;99.90;;;;;;5113468;28;20038;-56
2022/12/06 06:27:58;;;;;;;166.93;80.28;;;5.00;99.90;;;;;;5112945;28;20054;-55
2022/12/06 06:30:23;;;;;;;162.48;78.10;;;5.00;99.90;;;;;;5110012;28;20501;-57
2022/12/06 06:32:49;;;;;;;152.50;75.63;;;5.00;99.90;;;;;;5092514;28;20054;-57
2022/12/06 06:35:15;;;;;;;144.07;71.07;;;5.00;99.90;;;;;;5092412;28;20547;-58
2022/12/06 06:37:40;;;;;;;148.32;75.20;;;5.10;99.90;;;;;;5091233;28;20032;-57
2022/12/06 06:40:07;;;;;;;147.30;72.63;;;5.10;99.90;;;;;;5091286;28;20437;-60
2022/12/06 06:42:32;;;;;;;138.95;72.10;;;5.00;99.90;;;;;;5070423;28;20119;-58
2022/12/06 06:44:58;;;;;;;144.57;69.43;;;5.00;99.90;;;;;;5091545;28;20024;-60
2022/12/06 06:47:24;;;;;;;134.80;69.25;;;5.00;99.90;;;;;;5090886;28;20103;-62
2022/12/06 06:49:49;;;;;;;139.82;68.70;;;5.00;99.90;;;;;;5091845;28;20024;-61
2022/12/06 06:52:15;;;;;;;138.35;70.32;;;5.00;99.90;;;;;;5092331;28;20499;-62
2022/12/06 06:54:40;;;;;;;126.93;66.25;;;5.00;99.90;;;;;;5090959;28;20059;-57
2022/12/06 06:57:06;;;;;;;130.93;68.30;;;5.00;99.90;;;;;;5092222;28;20145;-55
2022/12/06 06:59:32;;;;;;;140.73;71.53;;;5.00;99.90;;;;;;5092019;28;20064;-55
2022/12/06 07:01:57;;;;;;;129.85;67.60;;;5.10;99.90;;;;;;5091854;28;20035;-55
2022/12/06 07:04:23;;;;;;;130.13;67.60;;;5.00;99.90;;;;;;5092227;28;20461;-56
2022/12/06 07:06:49;;;;;;;123.57;65.15;;;5.00;99.90;;;;;;5091687;28;20062;-57
2022/12/06 07:09:14;;;;;;;123.05;64.72;;;5.00;99.90;;;;;;5090094;28;20051;-59
2022/12/06 07:11:40;;;;;;;123.45;67.15;;;5.00;99.90;;;;;;5090681;28;20705;-63
2022/12/06 07:14:06;;;;;;;121.32;67.82;;;5.10;99.90;;;;;;5091327;28;20383;-66
2022/12/06 07:16:32;;;;;;;128.65;69.90;;;5.00;99.90;;;;;;5093108;28;20031;-59
2022/12/06 07:18:58;;;;;;;133.85;71.63;;;5.10;99.90;;;;;;5093255;28;20467;-61
2022/12/06 07:21:23;;;;;;;134.35;70.97;;;5.10;99.90;;;;;;5093529;28;20119;-62
2022/12/06 07:23:49;;;;;;;149.63;76.75;;;5.10;99.90;;;;;;5093423;28;20065;-63
2022/12/06 07:26:18;;;;;;;160.18;77.65;;;5.10;99.90;;;;;;5094295;28;20102;-64
2022/12/06 07:28:45;;;;;;;136.35;69.18;;;5.10;99.90;;;;;;5094167;28;20123;-56
2022/12/06 07:31:17;;;;;;;126.78;66.78;;;5.10;99.90;;;;;;5093948;28;20024;-60
2022/12/06 07:33:44;;;;;;;132.10;67.80;;;5.10;99.90;;;;;;5092076;28;20024;-55
2022/12/06 07:36:11;;;;;;;138.65;67.80;;;5.10;99.90;;;;;;5094127;28;20016;-61
2022/12/06 07:38:37;;;;;;;131.55;64.65;;;5.10;99.90;;;;;;5076846;28;20039;-55
2022/12/06 07:46:37;;;;;;;113.85;57.05;;;5.00;99.90;;;;;;5094997;28;20039;-53
2022/12/06 07:49:03;;;;;;;114.32;56.60;;;5.00;99.90;;;;;;5095163;28;20020;-56
2022/12/06 07:51:29;;;;;;;108.47;55.33;;;5.00;99.90;;;;;;5095004;28;20094;-57
2022/12/06 07:53:55;;;;;;;108.35;54.72;;;5.00;99.90;;;;;;5093185;28;20114;-61
2022/12/06 07:56:20;;;;;;;107.30;55.63;;;5.00;99.90;;;;;;5093778;28;20026;-59
2022/12/06 07:58:46;;;;;;;102.20;54.70;;;5.10;99.90;;;;;;5094573;28;20116;-59
2022/12/06 08:01:12;;;;;;;99.93;54.15;;;5.10;99.90;;;;;;5096379;28;20024;-63
2022/12/06 08:03:37;;;;;;;104.97;53.13;;;5.10;99.90;;;;;;5093488;28;20420;-63
2022/12/06 08:06:04;;;;;;;101.85;55.83;;;5.10;99.90;;;;;;5093561;28;20024;-57
2022/12/06 08:08:30;;;;;;;101.57;55.25;;;5.10;99.90;;;;;;5094170;28;20450;-60
2022/12/06 08:11:04;;;;;;;112.93;53.77;;;5.10;99.90;;;;;;5094202;28;20015;-57
2022/12/06 08:13:30;;;;;;;112.80;57.88;;;5.10;99.90;;;;;;5094537;28;20486;-56
2022/12/06 08:15:56;;;;;;;126.75;62.35;;;5.10;99.90;;;;;;5093223;28;20016;-57
2022/12/06 08:18:22;;;;;;;114.22;60.40;;;5.20;99.90;;;;;;5093273;28;20034;-58
2022/12/06 08:20:49;;;;;;;114.15;59.88;;;5.20;99.90;;;;;;5076010;28;20180;-60
2022/12/06 08:23:14;;;;;;;120.68;60.47;;;5.20;99.90;;;;;;5095856;28;20053;-58
2022/12/06 08:25:40;;;;;;;122.03;64.10;;;5.10;99.90;;;;;;5093224;28;20106;-56
2022/12/06 08:28:06;;;;;;;121.15;64.10;;;5.10;99.90;;;;;;5093471;28;20519;-58
2022/12/06 08:30:32;;;;;;;121.25;63.25;;;5.10;99.90;;;;;;5093968;28;20761;-62
2022/12/06 08:32:57;;;;;;;127.45;64.68;;;5.10;99.90;;;;;;5093715;28;20016;-57
2022/12/06 08:35:23;;;;;;;144.55;73.47;;;5.10;99.90;;;;;;5094993;28;20050;-59
2022/12/06 08:37:49;;;;;;;130.35;69.50;;;5.20;99.90;;;;;;5093171;28;20028;-61
2022/12/06 08:40:14;;;;;;;157.32;81.47;;;5.20;99.90;;;;;;5093028;28;20475;-60
2022/12/06 08:42:42;;;;;;;145.25;75.20;;;5.20;99.90;;;;;;5094216;28;20023;-58
2022/12/06 08:45:08;;;;;;;139.15;75.30;;;5.10;99.90;;;;;;5094994;28;20153;-55
2022/12/06 08:47:33;;;;;;;146.80;74.82;;;5.20;99.90;;;;;;5079066;28;20509;-55
2022/12/06 08:49:59;;;;;;;131.45;74.43;;;5.20;99.90;;;;;;5092566;28;20020;-55
2022/12/06 08:52:25;;;;;;;136.10;74.55;;;5.20;99.90;;;;;;5092686;28;20020;-56
2022/12/06 08:54:50;;;;;;;133.63;73.47;;;5.10;99.90;;;;;;5078792;28;20048;-55
2022/12/06 08:57:16;;;;;;;135.57;74.10;;;5.10;99.90;;;;;;5092681;28;20016;-57
2022/12/06 08:59:42;;;;;;;143.23;77.15;;;5.10;99.90;;;;;;5092719;28;20039;-56
2022/12/06 09:02:12;;;;;;;137.07;75.63;;;5.10;99.90;;;;;;5092587;28;20604;-57
2022/12/06 09:04:37;;;;;;;136.85;77.22;;;5.10;99.90;;;;;;5075341;28;20028;-55
2022/12/06 09:07:03;;;;;;;154.50;86.13;;;5.10;99.90;;;;;;5094237;28;20424;-55
2022/12/06 09:09:29;;;;;;;152.52;85.45;;;5.10;99.90;;;;;;5094089;28;20471;-55
2022/12/06 09:11:55;;;;;;;200.15;108.68;;;5.10;99.90;;;;;;5092655;28;20110;-56
2022/12/06 09:14:21;;;;;;;205.88;111.60;;;5.00;99.90;;;;;;5092953;28;20020;-53
2022/12/06 09:16:47;;;;;;;229.52;127.80;;;5.10;99.90;;;;;;5093927;28;20592;-56
2022/12/06 09:19:13;;;;;;;251.60;133.70;;;5.00;99.90;;;;;;5091835;28;20059;-57
2022/12/06 09:21:45;;;;;;;234.80;124.18;;;5.00;99.90;;;;;;5089883;28;20059;-56
2022/12/06 09:24:12;;;;;;;211.18;112.07;;;5.00;99.90;;;;;;5089875;28;20021;-56
2022/12/06 09:26:39;;;;;;;208.13;107.55;;;5.00;99.90;;;;;;5089625;28;20081;-57
2022/12/06 09:29:05;;;;;;;216.73;112.88;;;5.00;99.90;;;;;;5089732;28;20024;-56
2022/12/06 09:31:30;;;;;;;190.02;100.30;;;5.00;99.90;;;;;;5069185;28;20601;-57
2022/12/06 09:33:56;;;;;;;179.38;93.93;;;5.00;99.90;;;;;;5089638;28;20417;-58
2022/12/06 09:36:25;;;;;;;169.65;89.45;;;5.00;99.90;;;;;;5089719;28;20082;-56
2022/12/06 09:39:03;;;;;;;158.38;83.72;;;5.00;99.90;;;;;;5081553;28;20782;-55
2022/12/06 09:41:34;;;;;;;;;;;4.90;99.90;;;;;;5090396;28;20115;-57
2022/12/06 09:44:09;;;;;;;125.93;66.70;;;5.00;99.90;;;;;;5089385;28;19904;-56
2022/12/06 09:46:50;;;;;;;102.35;55.10;;;4.90;99.90;;;;;;5091667;28;20035;-56
2022/12/06 09:49:26;;;;;;;101.03;51.83;;;4.90;99.90;;;;;;5093505;28;20024;-58
2022/12/06 09:52:16;;;;;;;106.50;53.92;;;4.90;99.90;;;;;;5085327;28;20028;-56
2022/12/06 09:55:12;;;;;;;92.38;49.55;;;4.90;99.90;;;;;;5074073;28;20052;-54
2022/12/06 09:57:55;;;;;;;102.68;51.38;;;4.90;99.90;;;;;;5093073;28;20088;-52
2022/12/06 10:00:22;;;;;;;101.95;54.13;;;4.90;99.90;;;;;;5096155;28;20024;-53
2022/12/06 10:03:29;;;;;;;105.30;54.17;;;4.90;99.90;;;;;;5096536;28;20020;-53
2022/12/06 10:05:59;;;;;;;119.03;59.05;;;4.90;99.90;;;;;;5095410;28;20056;-52
2022/12/06 10:08:49;;;;;;;133.35;63.28;;;4.90;99.90;;;;;;5094110;28;20046;-56
2022/12/06 10:11:29;;;;;;;110.18;51.30;;;4.90;99.90;;;;;;5098220;28;20036;-55
2022/12/06 10:14:13;;;;;;;126.25;56.72;;;4.90;99.90;;;;;;5082422;28;20027;-54
2022/12/06 10:16:46;;;;;;;106.70;49.83;;;4.90;99.90;;;;;;5098226;28;20110;-57
2022/12/06 10:19:23;;;;;;;77.40;40.70;;;4.80;99.90;;;;;;5098219;28;20494;-54
2022/12/06 10:21:49;;;;;;;31.88;16.20;;;4.80;99.90;;;;;;5094369;28;20040;-54
2022/12/06 10:24:33;;;;;;;22.48;10.90;;;4.70;99.90;;;;;;5096294;28;20570;-52
2022/12/06 10:27:16;;;;;;;26.55;11.73;;;4.60;99.90;;;;;;5088970;28;20020;-54
2022/12/06 10:30:00;;;;;;;26.45;12.70;;;4.60;99.90;;;;;;5081773;28;20060;-53
2022/12/06 10:32:46;;;;;;;29.17;12.80;;;4.50;99.90;;;;;;5093853;28;20065;-55
2022/12/06 10:35:35;;;;;;;26.55;11.15;;;4.50;99.90;;;;;;5096655;28;20055;-54
2022/12/06 10:38:06;;;;;;;26.02;12.43;;;4.50;99.90;;;;;;5077401;28;20028;-56
2022/12/06 10:40:47;;;;;;;21.90;12.43;;;4.40;99.90;;;;;;5096911;28;20031;-54
2022/12/06 10:43:18;;;;;;;27.13;14.27;;;4.40;99.90;;;;;;5093521;28;20024;-52
2022/12/06 10:49:08;;;;;;;33.58;16.65;;;4.40;99.90;;;;;;5094534;28;20084;-53
2022/12/06 10:52:15;;;;;;;31.15;16.90;;;4.40;99.90;;;;;;5095898;28;20356;-55
2022/12/06 10:54:52;;;;;;;27.30;14.70;;;4.30;99.90;;;;;;5022398;28;20746;-57
2022/12/06 10:57:27;;;;;;;30.58;15.68;;;4.30;99.90;;;;;;5077580;28;20024;-56
2022/12/06 11:00:00;;;;;;;28.83;15.52;;;4.30;99.90;;;;;;5088154;28;20043;-55
2022/12/06 11:03:11;;;;;;;38.60;20.80;;;4.30;99.90;;;;;;5093468;28;20020;-56
2022/12/06 11:05:45;;;;;;;30.83;17.08;;;4.30;99.90;;;;;;5089220;28;20073;-57
2022/12/06 11:08:22;;;;;;;38.05;20.63;;;4.40;99.90;;;;;;5094954;28;20081;-55
2022/12/06 11:10:48;;;;;;;35.10;20.58;;;4.30;99.90;;;;;;5093039;28;20035;-56
2022/12/06 11:13:25;;;;;;;36.10;20.17;;;4.30;99.90;;;;;;5095718;28;20028;-55
2022/12/06 11:16:14;;;;;;;42.00;22.52;;;4.40;99.90;;;;;;5093258;28;20024;-58
2022/12/06 11:18:41;;;;;;;44.53;25.08;;;4.30;99.90;;;;;;5096939;28;20024;-55
2022/12/06 11:21:19;;;;;;;38.93;22.60;;;4.30;99.90;;;;;;5093375;28;20074;-62
2022/12/06 11:23:48;;;;;;;38.33;22.08;;;4.30;99.90;;;;;;5095659;28;20483;-54
2022/12/06 11:26:23;;;;;;;45.67;21.85;;;4.30;99.90;;;;;;5095540;28;20027;-58
2022/12/06 11:29:03;;;;;;;38.13;22.10;;;4.30;99.90;;;;;;5092998;28;20773;-64
2022/12/06 11:31:41;;;;;;;33.15;19.38;;;4.30;99.90;;;;;;5075223;28;20456;-55
2022/12/06 11:34:21;;;;;;;34.60;19.02;;;4.20;99.90;;;;;;5093675;28;20035;-57
2022/12/06 11:36:51;;;;;;;31.13;17.17;;;4.20;99.90;;;;;;5092188;28;20070;-54
2022/12/06 11:39:17;;;;;;;33.53;17.88;;;4.20;99.90;;;;;;5095337;28;20122;-54
2022/12/06 11:41:49;;;;;;;25.90;15.27;;;4.20;99.90;;;;;;5097298;28;20064;-57
2022/12/06 11:44:19;;;;;;;24.58;13.48;;;4.20;99.90;;;;;;5096972;28;20734;-60
2022/12/06 11:46:48;;;;;;;30.52;14.32;;;4.30;99.90;;;;;;5095285;28;20047;-58
2022/12/06 11:49:20;;;;;;;27.00;15.50;;;4.30;99.90;;;;;;5094902;28;20031;-55
2022/12/06 11:51:45;;;;;;;35.58;19.05;;;4.30;99.90;;;;;;5097451;28;20032;-59
2022/12/06 11:54:14;;;;;;;38.40;18.20;;;4.30;99.90;;;;;;5096050;28;20100;-58
2022/12/06 11:56:40;;;;;;;41.50;20.63;;;4.30;99.90;;;;;;5095786;28;20025;-55
2022/12/06 11:59:26;;;;;;;53.45;27.92;;;4.20;99.90;;;;;;5094951;28;20028;-57
2022/12/06 12:01:55;;;;;;;56.47;31.35;;;4.20;99.90;;;;;;5092567;28;20016;-55
2022/12/06 12:04:35;;;;;;;51.25;29.35;;;4.20;99.90;;;;;;5077559;28;20119;-57
2022/12/06 12:07:16;;;;;;;50.17;27.52;;;4.20;99.90;;;;;;5090065;28;20020;-57
2022/12/06 12:09:55;;;;;;;57.53;30.10;;;4.20;99.90;;;;;;5089529;28;20133;-59
2022/12/06 12:13:42;;;;;;;52.15;28.17;;;4.20;99.90;;;;;;5089719;28;20055;-56
2022/12/06 12:15:17;;;;;;;44.92;24.02;;;4.10;99.90;;;;;;5089656;28;20027;-54
2022/12/06 12:17:46;;;;;;;43.67;24.63;;;4.10;99.90;;;;;;5089961;28;20162;-60
2022/12/06 12:20:23;;;;;;;41.10;22.65;;;4.10;99.90;;;;;;5089939;28;20101;-60
2022/12/06 12:23:03;;;;;;;40.50;21.13;;;4.00;99.90;;;;;;5089726;28;20051;-53
2022/12/06 12:25:32;;;;;;;40.10;21.20;;;4.00;99.90;;;;;;5089778;28;20427;-54
2022/12/06 12:28:00;;;;;;;37.97;22.35;;;4.00;99.90;;;;;;5089770;28;20048;-59
2022/12/06 12:30:36;;;;;;;44.95;25.38;;;4.10;99.90;;;;;;5089690;28;20651;-61
2022/12/06 12:33:05;;;;;;;44.78;24.77;;;4.10;99.90;;;;;;5089544;28;20028;-53
2022/12/06 12:35:34;;;;;;;41.63;23.23;;;4.10;99.90;;;;;;5089451;28;20012;-60
2022/12/06 12:38:05;;;;;;;51.72;25.17;;;4.10;99.90;;;;;;5089445;28;20028;-57
2022/12/06 12:40:40;;;;;;;44.15;24.70;;;4.20;99.90;;;;;;5089433;28;20032;-56
2022/12/06 12:43:11;;;;;;;42.75;23.80;;;4.10;99.90;;;;;;5089233;28;20074;-61
2022/12/06 12:46:09;;;;;;;43.47;22.80;;;4.10;99.90;;;;;;5089096;28;20024;-60
2022/12/06 12:48:36;;;;;;;40.72;21.20;;;4.00;99.90;;;;;;5089458;28;20036;-55
2022/12/06 12:51:03;;;;;;;;;;;3.90;99.90;;;;;;5089952;28;20047;-54
2022/12/06 12:53:37;;;;;;;44.28;22.75;;;3.90;99.90;;;;;;5089661;28;19907;-55
2022/12/06 12:56:19;;;;;;;46.05;24.00;;;3.90;99.90;;;;;;5089251;28;20047;-55
2022/12/06 12:58:51;;;;;;;37.72;22.27;;;3.90;99.90;;;;;;5088713;28;20051;-58
2022/12/06 13:01:23;;;;;;;35.47;20.08;;;3.90;99.90;;;;;;5092593;28;20024;-54
2022/12/06 13:03:56;;;;;;;38.90;19.80;;;3.90;99.90;;;;;;5090576;28;20095;-56
2022/12/06 13:06:58;;;;;;;31.58;18.80;;;3.90;99.90;;;;;;5092105;28;20162;-57
2022/12/06 13:09:32;;;;;;;34.38;16.98;;;3.80;99.90;;;;;;5092413;28;20019;-56
2022/12/06 13:12:15;;;;;;;29.70;16.45;;;3.80;99.90;;;;;;5074952;28;20024;-55
2022/12/06 13:14:48;;;;;;;37.60;17.17;;;3.80;99.90;;;;;;5087839;28;20024;-57
2022/12/06 13:17:14;;;;;;;32.13;16.85;;;3.80;99.90;;;;;;5086779;28;20032;-57
2022/12/06 13:19:44;;;;;;;32.50;17.85;;;3.90;99.90;;;;;;5088483;28;20107;-58